createdAt,value
2023-02-03T00:01:27.712Z,12.90
2023-02-03T00:03:55.579Z,13.07
2023-02-03T00:06:25.588Z,13.90
2023-02-03T00:08:55.414Z,13.33
2023-02-03T00:11:23.262Z,13.33
2023-02-03T00:13:51.050Z,13.90
2023-02-03T00:16:19.042Z,13.50
2023-02-03T00:18:46.807Z,12.83
2023-02-03T00:21:15.288Z,12.40
2023-02-03T00:23:44.868Z,12.77
2023-02-03T00:26:15.486Z,12.67
2023-02-03T00:28:43.451Z,12.37
2023-02-03T00:31:16.498Z,12.33
2023-02-03T00:33:44.537Z,12.57
2023-02-03T00:36:13.952Z,12.10
2023-02-03T00:38:41.739Z,12.93
2023-02-03T00:41:11.095Z,13.40
2023-02-03T00:43:38.833Z,13.73
2023-02-03T00:46:06.866Z,13.47
2023-02-03T00:48:34.696Z,13.40
2023-02-03T00:51:02.463Z,15.00
2023-02-03T00:53:30.408Z,13.57
2023-02-03T00:55:58.453Z,13.30
2023-02-03T00:58:27.875Z,14.13
2023-02-03T01:00:56.807Z,12.33
2023-02-03T01:03:25.117Z,13.90
2023-02-03T01:05:52.883Z,14.23
2023-02-03T01:08:21.033Z,13.23
2023-02-03T01:10:48.697Z,13.37
2023-02-03T01:13:16.613Z,13.13
2023-02-03T01:15:50.523Z,13.17
2023-02-03T01:18:18.236Z,12.67
2023-02-03T01:20:46.187Z,12.73
2023-02-03T01:23:14.616Z,12.07
2023-02-03T01:25:43.535Z,11.87
2023-02-03T01:28:11.414Z,12.83
2023-02-03T01:30:39.529Z,12.23
2023-02-03T01:33:08.655Z,11.80
2023-02-03T01:35:36.641Z,12.80
2023-02-03T01:38:04.744Z,11.97
2023-02-03T01:40:32.728Z,12.53
2023-02-03T01:43:00.625Z,12.07
2023-02-03T01:45:28.306Z,11.90
2023-02-03T01:47:58.565Z,12.00
2023-02-03T01:50:32.689Z,11.47
2023-02-03T01:53:04.163Z,11.33
2023-02-03T01:55:37.160Z,11.77
2023-02-03T01:58:09.845Z,11.63
2023-02-03T02:00:37.584Z,10.43
2023-02-03T02:03:07.129Z,10.67
2023-02-03T02:05:39.995Z,11.53
2023-02-03T02:08:10.049Z,11.80
2023-02-03T02:10:37.823Z,10.63
2023-02-03T02:13:06.971Z,10.27
2023-02-03T02:15:44.461Z,11.00
2023-02-03T02:18:24.680Z,11.03
2023-02-03T02:21:14.840Z,10.03
2023-02-03T02:27:53.626Z,9.83
2023-02-03T02:38:34.523Z,9.00
2023-02-03T02:48:39.803Z,8.50
2023-02-03T02:54:56.388Z,8.70
2023-02-03T02:57:26.848Z,9.43
2023-02-03T02:59:55.502Z,8.47
2023-02-03T03:02:34.773Z,8.27
2023-02-03T03:08:55.470Z,8.00
2023-02-03T03:11:28.475Z,7.80
2023-02-03T03:25:20.827Z,7.57
2023-02-03T03:27:52.953Z,7.57
2023-02-03T03:34:17.444Z,7.77
2023-02-03T03:40:37.175Z,7.80
2023-02-03T03:43:21.138Z,7.00
2023-02-03T03:45:55.351Z,6.87
2023-02-03T03:48:31.559Z,7.53
2023-02-03T03:51:05.365Z,7.67
2023-02-03T03:53:36.822Z,7.47
2023-02-03T03:56:14.465Z,6.90
2023-02-03T03:58:47.970Z,7.43
2023-02-03T04:01:26.466Z,6.90
2023-02-03T04:04:16.822Z,6.73
2023-02-03T04:06:46.923Z,7.17
2023-02-03T04:09:15.821Z,6.67
2023-02-03T04:23:12.886Z,6.27
2023-02-03T04:29:21.697Z,5.93
2023-02-03T04:31:49.577Z,5.80
2023-02-03T04:34:21.431Z,5.60
2023-02-03T04:36:50.784Z,6.00
2023-02-03T04:43:12.291Z,5.20
2023-02-03T04:45:41.567Z,5.60
2023-02-03T04:48:11.602Z,5.17
2023-02-03T04:50:43.261Z,5.47
2023-02-03T04:53:12.180Z,5.60
2023-02-03T04:55:47.217Z,6.50
2023-02-03T05:02:13.902Z,5.17
2023-02-03T05:04:43.822Z,5.37
2023-02-03T05:11:06.428Z,5.33
2023-02-03T05:13:36.901Z,4.63
2023-02-03T05:16:05.661Z,4.60
2023-02-03T05:25:40.624Z,5.27
2023-02-03T05:28:12.614Z,4.50
2023-02-03T05:30:42.234Z,4.27
2023-02-03T05:33:13.267Z,4.73
2023-02-03T05:39:29.729Z,4.67
2023-02-03T05:41:58.353Z,4.63
2023-02-03T05:44:28.964Z,4.20
2023-02-03T05:46:59.125Z,4.53
2023-02-03T05:49:30.052Z,4.03
2023-02-03T05:51:58.018Z,4.83
2023-02-03T05:54:25.880Z,4.13
2023-02-03T05:56:55.297Z,4.50
2023-02-03T05:59:23.006Z,4.27
2023-02-03T06:01:50.755Z,4.30
2023-02-03T06:04:18.713Z,4.47
2023-02-03T06:06:48.159Z,3.90
2023-02-03T06:09:19.669Z,4.37
2023-02-03T06:11:49.243Z,4.77
2023-02-03T06:14:20.556Z,4.40
2023-02-03T06:16:48.663Z,4.70
2023-02-03T06:19:17.972Z,5.07
2023-02-03T06:21:46.403Z,3.80
2023-02-03T06:24:16.303Z,4.63
2023-02-03T06:26:44.542Z,4.70
2023-02-03T06:29:17.116Z,5.20
2023-02-03T06:31:55.019Z,4.63
2023-02-03T06:34:25.360Z,5.27
2023-02-03T06:36:56.214Z,4.30
2023-02-03T06:39:27.665Z,4.53
2023-02-03T06:41:56.316Z,5.10
2023-02-03T06:44:25.656Z,4.20
2023-02-03T06:46:59.968Z,4.37
2023-02-03T06:49:27.543Z,4.97
2023-02-03T06:51:57.599Z,5.00
2023-02-03T06:54:26.429Z,4.87
2023-02-03T06:56:54.156Z,4.43
2023-02-03T06:59:27.448Z,5.40
2023-02-03T07:02:02.611Z,4.70
2023-02-03T07:04:32.985Z,4.73
2023-02-03T07:10:41.966Z,5.07
2023-02-03T07:13:10.255Z,5.17
2023-02-03T07:15:41.167Z,5.53
2023-02-03T07:18:36.030Z,5.30
2023-02-03T07:21:15.676Z,5.40
2023-02-03T07:27:57.836Z,5.43
2023-02-03T07:38:01.442Z,6.10
2023-02-03T07:47:58.538Z,5.40
2023-02-03T07:50:27.696Z,5.00
2023-02-03T07:52:58.497Z,5.40
2023-02-03T07:55:29.823Z,5.03
2023-02-03T07:58:03.282Z,5.77
2023-02-03T08:00:31.199Z,5.27
2023-02-03T08:02:59.308Z,5.07
2023-02-03T08:05:29.620Z,5.97
2023-02-03T08:07:59.699Z,5.30
2023-02-03T08:10:33.186Z,5.60
2023-02-03T08:13:01.124Z,4.90
2023-02-03T08:15:28.772Z,6.10
2023-02-03T08:17:59.019Z,5.57
2023-02-03T08:20:28.713Z,6.23
2023-02-03T08:22:56.949Z,5.50
2023-02-03T08:25:33.933Z,6.10
2023-02-03T08:28:06.540Z,6.43
2023-02-03T08:30:38.659Z,5.70
2023-02-03T08:36:49.423Z,6.03
2023-02-03T08:43:05.833Z,6.23
2023-02-03T08:45:34.725Z,6.30
2023-02-03T08:48:02.953Z,6.43
2023-02-03T08:50:33.669Z,5.73
2023-02-03T08:53:01.793Z,6.23
2023-02-03T08:55:30.170Z,5.90
2023-02-03T08:57:58.449Z,6.03
2023-02-03T09:00:28.488Z,5.70
2023-02-03T09:02:57.897Z,6.37
2023-02-03T09:05:25.526Z,6.13
2023-02-03T09:07:54.059Z,6.53
2023-02-03T09:10:21.751Z,6.23
2023-02-03T09:12:49.531Z,6.07
2023-02-03T09:15:18.078Z,6.43
2023-02-03T09:17:48.737Z,5.13
2023-02-03T09:20:17.773Z,5.17
2023-02-03T09:22:45.614Z,5.07
2023-02-03T09:25:13.942Z,8.73
2023-02-03T09:27:41.705Z,6.30
2023-02-03T09:30:10.575Z,4.83
2023-02-03T09:32:38.613Z,5.93
2023-02-03T09:35:08.949Z,5.00
2023-02-03T09:37:41.848Z,5.77
2023-02-03T09:40:19.247Z,4.90
2023-02-03T09:43:00.020Z,5.10
2023-02-03T09:45:29.918Z,6.27
2023-02-03T09:48:02.445Z,4.90
2023-02-03T09:50:36.582Z,6.10
2023-02-03T09:53:09.467Z,6.50
2023-02-03T09:55:41.132Z,5.03
2023-02-03T09:58:13.329Z,4.37
2023-02-03T10:00:44.852Z,4.50
2023-02-03T10:03:25.653Z,4.97
2023-02-03T10:06:21.858Z,5.03
2023-02-03T10:09:02.691Z,4.30
2023-02-03T10:11:54.582Z,5.03
2023-02-03T10:14:35.968Z,4.40
2023-02-03T10:17:20.085Z,4.80
2023-02-03T10:19:51.462Z,4.13
2023-02-03T10:22:25.884Z,4.10
2023-02-03T10:24:57.537Z,4.47
2023-02-03T10:27:26.456Z,4.47
2023-02-03T10:30:00.302Z,5.07
2023-02-03T10:32:30.379Z,5.40
2023-02-03T10:34:59.394Z,6.07
2023-02-03T10:37:32.358Z,6.73
2023-02-03T10:40:02.207Z,13.90
2023-02-03T10:45:27.517Z,6.70
2023-02-03T10:47:59.792Z,11.20
2023-02-03T10:50:31.987Z,5.47
2023-02-03T10:53:22.594Z,5.20
2023-02-03T10:55:54.476Z,5.23
2023-02-03T10:58:27.904Z,5.03
2023-02-03T11:01:08.757Z,5.20
2023-02-03T11:03:36.577Z,5.00
2023-02-03T11:06:11.330Z,4.30
2023-02-03T11:08:41.949Z,5.67
2023-02-03T11:11:14.097Z,4.63
2023-02-03T11:13:43.289Z,4.47
2023-02-03T11:16:17.031Z,3.70
2023-02-03T11:18:53.623Z,3.73
2023-02-03T11:21:24.203Z,3.43
2023-02-03T11:23:59.291Z,4.27
2023-02-03T11:26:32.152Z,4.00
2023-02-03T11:29:03.018Z,4.47
2023-02-03T11:31:35.388Z,15.63
2023-02-03T11:34:06.055Z,5.10
2023-02-03T11:36:35.751Z,4.30
2023-02-03T11:39:21.858Z,3.23
2023-02-03T11:41:51.257Z,5.20
2023-02-03T11:44:26.930Z,4.40
2023-02-03T11:47:01.903Z,4.23
2023-02-03T11:49:59.976Z,3.53
2023-02-03T11:52:51.372Z,3.83
2023-02-03T11:55:35.831Z,3.67
2023-02-03T11:58:26.138Z,3.90
2023-02-03T12:01:01.369Z,4.33
2023-02-03T12:04:04.508Z,3.70
2023-02-03T12:06:51.424Z,3.57
2023-02-03T12:09:29.923Z,2.80
2023-02-03T12:12:17.969Z,3.33
2023-02-03T12:14:56.670Z,4.23
2023-02-03T12:17:57.757Z,2.90
2023-02-03T12:20:41.518Z,3.10
2023-02-03T12:23:24.056Z,2.93
2023-02-03T12:26:05.573Z,3.97
2023-02-03T12:28:46.536Z,3.57
2023-02-03T12:31:19.477Z,3.13
2023-02-03T12:33:51.586Z,2.63
2023-02-03T12:36:25.902Z,3.03
2023-02-03T12:39:02.811Z,3.50
2023-02-03T12:41:36.233Z,3.57
2023-02-03T12:44:07.963Z,3.40
2023-02-03T12:46:43.766Z,3.13
2023-02-03T12:49:17.751Z,3.70
2023-02-03T12:51:49.802Z,4.93
2023-02-03T12:54:32.431Z,3.73
2023-02-03T12:57:15.242Z,4.30
2023-02-03T12:59:48.580Z,3.20
2023-02-03T13:02:23.190Z,3.33
2023-02-03T13:04:57.174Z,4.03
2023-02-03T13:07:28.952Z,3.27
2023-02-03T13:10:07.445Z,3.93
2023-02-03T13:12:42.174Z,4.03
2023-02-03T13:15:23.780Z,3.60
2023-02-03T13:17:56.785Z,4.33
2023-02-03T13:20:27.298Z,4.87
2023-02-03T13:22:55.752Z,3.90
2023-02-03T13:25:28.387Z,7.23
2023-02-03T13:28:11.226Z,5.00
2023-02-03T13:30:57.360Z,4.17
2023-02-03T13:33:44.983Z,4.07
2023-02-03T13:37:03.586Z,4.13
2023-02-03T13:40:01.844Z,4.53
2023-02-03T13:42:33.593Z,4.23
2023-02-03T13:45:16.570Z,4.20
2023-02-03T13:47:48.238Z,4.77
2023-02-03T13:50:23.695Z,4.50
2023-02-03T13:53:00.152Z,4.00
2023-02-03T13:55:36.757Z,4.17
2023-02-03T13:58:08.358Z,4.33
2023-02-03T14:01:00.160Z,4.47
2023-02-03T14:03:46.307Z,4.60
2023-02-03T14:07:04.347Z,4.43
2023-02-03T14:09:39.153Z,3.93
2023-02-03T14:12:42.129Z,3.83
2023-02-03T14:15:35.530Z,4.20
2023-02-03T14:18:34.861Z,4.10
2023-02-03T14:21:21.540Z,4.43
2023-02-03T14:24:06.875Z,4.57
2023-02-03T14:26:41.619Z,4.37
2023-02-03T14:29:11.895Z,4.00
2023-02-03T14:31:57.966Z,13.13
2023-02-03T14:34:32.201Z,7.13
2023-02-03T14:37:12.667Z,4.60
2023-02-03T14:39:55.282Z,3.77
2023-02-03T14:42:36.048Z,3.70
2023-02-03T14:45:15.833Z,4.93
2023-02-03T14:48:02.764Z,4.03
2023-02-03T14:50:38.803Z,4.20
2023-02-03T14:53:22.334Z,4.33
2023-02-03T14:56:00.292Z,4.70
2023-02-03T14:58:34.328Z,4.30
2023-02-03T15:01:05.600Z,4.53
2023-02-03T15:03:38.029Z,4.83
2023-02-03T15:06:06.980Z,4.57
2023-02-03T15:08:40.673Z,4.17
2023-02-03T15:11:31.048Z,4.83
2023-02-03T15:14:19.229Z,4.67
2023-02-03T15:16:49.513Z,4.20
2023-02-03T15:19:22.355Z,4.43
2023-02-03T15:21:50.285Z,4.80
2023-02-03T15:24:22.283Z,3.97
2023-02-03T15:26:52.578Z,4.40
2023-02-03T15:29:24.749Z,4.30
2023-02-03T15:32:02.707Z,3.07
2023-02-03T15:34:36.360Z,3.87
2023-02-03T15:37:09.775Z,3.83
2023-02-03T15:39:50.477Z,3.10
2023-02-03T15:42:24.081Z,3.53
2023-02-03T15:44:57.129Z,3.17
2023-02-03T15:47:33.217Z,4.00
2023-02-03T15:50:10.085Z,3.80
2023-02-03T15:52:43.604Z,3.90
2023-02-03T15:55:21.113Z,3.53
2023-02-03T15:57:51.168Z,4.23
2023-02-03T16:00:34.146Z,3.80
2023-02-03T16:03:04.198Z,4.00
2023-02-03T16:05:37.152Z,3.47
2023-02-03T16:08:28.599Z,4.10
2023-02-03T16:10:56.486Z,3.87
2023-02-03T16:13:28.532Z,4.87
2023-02-03T16:16:08.510Z,4.60
2023-02-03T16:18:37.270Z,5.00
2023-02-03T16:21:07.743Z,4.70
2023-02-03T16:23:35.733Z,4.93
2023-02-03T16:26:18.803Z,3.97
2023-02-03T16:29:14.703Z,4.60
2023-02-03T16:32:05.049Z,3.87
2023-02-03T16:34:50.665Z,3.83
2023-02-03T16:37:43.304Z,4.10
2023-02-03T16:40:30.089Z,4.30
2023-02-03T16:43:15.583Z,4.37
2023-02-03T16:46:01.139Z,3.80
2023-02-03T16:48:46.548Z,4.43
2023-02-03T16:51:17.229Z,4.50
2023-02-03T16:53:48.597Z,4.00
2023-02-03T16:56:18.618Z,6.43
2023-02-03T16:58:47.032Z,5.23
2023-02-03T17:01:14.832Z,4.70
2023-02-03T17:03:44.490Z,5.67
2023-02-03T17:06:13.713Z,8.80
2023-02-03T17:08:42.402Z,6.10
2023-02-03T17:11:17.095Z,4.83
2023-02-03T17:13:45.285Z,8.20
2023-02-03T17:16:15.145Z,7.53
2023-02-03T17:18:44.084Z,6.47
2023-02-03T17:21:14.476Z,6.07
2023-02-03T17:23:42.405Z,24.53
2023-02-03T17:26:13.972Z,13.13
2023-02-03T17:28:43.358Z,13.13
2023-02-03T17:31:16.598Z,7.13
2023-02-03T17:33:44.767Z,9.07
2023-02-03T17:36:14.921Z,7.87
2023-02-03T17:55:21.189Z,9.23
2023-02-03T17:57:51.213Z,16.00
2023-02-03T18:00:19.601Z,11.80
2023-02-03T18:02:50.969Z,10.27
2023-02-03T18:05:19.628Z,12.10
2023-02-03T18:10:16.944Z,13.03
2023-02-03T18:12:44.897Z,11.53
2023-02-03T18:15:14.027Z,10.43
2023-02-03T18:17:42.599Z,8.67
2023-02-03T18:20:11.753Z,8.93
2023-02-03T18:22:39.589Z,8.37
2023-02-03T18:25:09.633Z,10.63
2023-02-03T18:27:38.257Z,8.23
2023-02-03T18:30:11.584Z,8.57
2023-02-03T18:32:40.876Z,8.37
2023-02-03T18:35:13.011Z,5.77
2023-02-03T18:37:40.899Z,7.90
2023-02-03T18:40:09.429Z,5.97
2023-02-03T18:42:39.287Z,4.50
2023-02-03T18:45:07.841Z,5.27
2023-02-03T18:47:35.531Z,5.37
2023-02-03T18:50:05.402Z,5.73
2023-02-03T18:52:34.239Z,4.90
2023-02-03T18:55:02.438Z,5.47
2023-02-03T18:57:30.543Z,5.33
2023-02-03T18:59:58.643Z,4.73
2023-02-03T19:02:26.736Z,4.97
2023-02-03T19:04:54.709Z,4.50
2023-02-03T19:07:25.182Z,5.57
2023-02-03T19:09:53.473Z,5.60
2023-02-03T19:12:21.229Z,5.57
2023-02-03T19:14:48.951Z,4.57
2023-02-03T19:17:16.728Z,5.07
2023-02-03T19:19:45.800Z,6.30
2023-02-03T19:22:13.820Z,5.37
2023-02-03T19:24:42.979Z,5.00
2023-02-03T19:27:10.619Z,5.30
2023-02-03T19:29:39.741Z,4.73
2023-02-03T19:32:08.192Z,6.17
2023-02-03T19:34:36.125Z,4.17
2023-02-03T19:37:04.041Z,5.80
2023-02-03T19:39:32.427Z,4.90
2023-02-03T19:42:01.925Z,4.90
2023-02-03T19:44:29.794Z,5.07
2023-02-03T19:46:58.323Z,4.93
2023-02-03T19:49:26.222Z,5.00
2023-02-03T19:51:54.587Z,5.13
2023-02-03T19:54:23.121Z,4.90
2023-02-03T19:56:51.001Z,5.10
2023-02-03T19:59:20.154Z,4.60
2023-02-03T20:01:49.895Z,5.50
2023-02-03T20:04:19.022Z,5.30
2023-02-03T20:06:46.760Z,5.50
2023-02-03T20:09:14.466Z,4.73
2023-02-03T20:11:42.287Z,5.90
2023-02-03T20:14:11.425Z,6.03
2023-02-03T20:16:40.752Z,4.67
2023-02-03T20:19:09.725Z,4.77
2023-02-03T20:21:37.735Z,6.23
2023-02-03T20:24:05.870Z,5.13
2023-02-03T20:26:36.389Z,7.17
2023-02-03T20:29:04.241Z,6.23
2023-02-03T20:31:32.489Z,5.77
2023-02-03T20:34:02.145Z,4.77
2023-02-03T20:36:30.271Z,5.40
2023-02-03T20:38:58.228Z,5.07
2023-02-03T20:41:26.247Z,4.90
2023-02-03T20:43:54.012Z,5.47
2023-02-03T20:46:21.954Z,5.10
2023-02-03T20:48:49.881Z,5.17
2023-02-03T20:51:21.796Z,5.33
2023-02-03T20:53:53.530Z,5.40
2023-02-03T20:56:22.411Z,5.30
2023-02-03T20:58:50.171Z,4.53
2023-02-03T21:01:20.158Z,4.77
2023-02-03T21:04:06.717Z,6.23
2023-02-03T21:06:37.185Z,5.00
2023-02-03T21:09:13.603Z,5.57
2023-02-03T21:11:41.652Z,5.03
2023-02-03T21:14:20.805Z,5.37
2023-02-03T21:16:49.269Z,4.63
2023-02-03T21:19:29.830Z,5.03
2023-02-03T21:21:59.888Z,4.90
2023-02-03T21:24:30.243Z,5.27
2023-02-03T21:26:58.523Z,4.70
2023-02-03T21:29:27.880Z,5.43
2023-02-03T21:31:59.687Z,5.40
2023-02-03T21:34:30.101Z,5.53
2023-02-03T21:37:03.352Z,5.43
2023-02-03T21:39:34.023Z,5.47
2023-02-03T21:42:17.788Z,6.10
2023-02-03T21:44:45.891Z,5.27
2023-02-03T21:47:19.088Z,5.60
2023-02-03T21:49:46.709Z,5.43
2023-02-03T21:52:15.953Z,5.40
2023-02-03T21:54:45.324Z,5.50
2023-02-03T21:57:15.723Z,5.70
2023-02-03T21:59:46.854Z,6.13
2023-02-03T22:02:47.708Z,6.27
2023-02-03T22:05:16.306Z,7.03
2023-02-03T22:07:46.575Z,6.47
2023-02-03T22:10:14.227Z,7.53
2023-02-03T22:12:42.972Z,7.07
2023-02-03T22:15:12.526Z,6.73
2023-02-03T22:17:40.647Z,7.33
2023-02-03T22:20:08.864Z,5.50
2023-02-03T22:22:36.990Z,6.23
2023-02-03T22:25:07.112Z,6.27
2023-02-03T22:27:34.889Z,5.33
2023-02-03T22:30:02.588Z,6.50
2023-02-03T22:32:30.268Z,6.20
2023-02-03T22:34:59.039Z,5.77
2023-02-03T22:37:26.693Z,5.47
2023-02-03T22:39:55.729Z,5.37
2023-02-03T22:42:25.127Z,6.00
2023-02-03T22:44:52.932Z,5.83
2023-02-03T22:47:20.631Z,4.90
2023-02-03T22:49:48.357Z,5.70
2023-02-03T22:52:16.539Z,5.63
2023-02-03T22:54:44.332Z,5.77
2023-02-03T22:57:12.045Z,5.67
2023-02-03T22:59:41.235Z,5.17
2023-02-03T23:02:09.562Z,4.73
2023-02-03T23:04:37.661Z,5.17
2023-02-03T23:07:05.391Z,5.90
2023-02-03T23:09:33.214Z,6.07
2023-02-03T23:12:00.891Z,5.97
2023-02-03T23:14:29.391Z,5.93
2023-02-03T23:16:58.786Z,6.67
2023-02-03T23:19:26.658Z,5.27
2023-02-03T23:21:54.354Z,5.57
2023-02-03T23:24:22.431Z,6.03
2023-02-03T23:26:50.324Z,4.70
2023-02-03T23:29:18.031Z,5.97
2023-02-03T23:31:45.886Z,5.40
2023-02-03T23:34:32.872Z,5.20
2023-02-03T23:37:01.438Z,6.23
2023-02-03T23:39:29.490Z,5.23
2023-02-03T23:41:57.888Z,5.77
2023-02-03T23:44:25.892Z,5.50
2023-02-03T23:46:53.968Z,5.70
2023-02-03T23:49:24.655Z,5.63
2023-02-03T23:51:52.540Z,5.17
2023-02-03T23:54:20.633Z,6.97
2023-02-03T23:56:48.857Z,5.97
2023-02-03T23:59:16.562Z,6.83
